sensor_id;sensor_type;location;lat;lon;timestamp;P1;durP1;ratioP1;P2;durP2;ratioP2
25015;SDS011;13029;46.286;7.488;2022-12-07T00:00:52;5.15;;;2.08;;
25015;SDS011;13029;46.286;7.488;2022-12-07T00:03:17;5.60;;;1.83;;
25015;SDS011;13029;46.286;7.488;2022-12-07T00:05:42;4.60;;;2.22;;
25015;SDS011;13029;46.286;7.488;2022-12-07T00:08:08;3.47;;;1.70;;
25015;SDS011;13029;46.286;7.488;2022-12-07T00:10:33;4.15;;;1.80;;
25015;SDS011;13029;46.286;7.488;2022-12-07T00:12:59;3.78;;;2.00;;
25015;SDS011;13029;46.286;7.488;2022-12-07T00:15:24;3.80;;;1.80;;
25015;SDS011;13029;46.286;7.488;2022-12-07T00:17:50;3.40;;;1.92;;
25015;SDS011;13029;46.286;7.488;2022-12-07T00:20:15;4.45;;;2.20;;
25015;SDS011;13029;46.286;7.488;2022-12-07T00:22:41;5.72;;;2.58;;
25015;SDS011;13029;46.286;7.488;2022-12-07T00:25:06;3.70;;;2.00;;
25015;SDS011;13029;46.286;7.488;2022-12-07T00:27:31;4.13;;;1.88;;
25015;SDS011;13029;46.286;7.488;2022-12-07T00:29:57;8.52;;;2.20;;
25015;SDS011;13029;46.286;7.488;2022-12-07T00:32:22;2.72;;;1.48;;
25015;SDS011;13029;46.286;7.488;2022-12-07T00:34:47;3.03;;;1.40;;
25015;SDS011;13029;46.286;7.488;2022-12-07T00:37:13;2.60;;;1.60;;
25015;SDS011;13029;46.286;7.488;2022-12-07T00:39:38;3.58;;;1.65;;
25015;SDS011;13029;46.286;7.488;2022-12-07T00:42:03;1.77;;;1.42;;
25015;SDS011;13029;46.286;7.488;2022-12-07T00:44:29;3.00;;;1.58;;
25015;SDS011;13029;46.286;7.488;2022-12-07T00:46:54;1.77;;;1.40;;
25015;SDS011;13029;46.286;7.488;2022-12-07T00:49:20;2.05;;;1.40;;
25015;SDS011;13029;46.286;7.488;2022-12-07T00:51:47;1.65;;;1.35;;
25015;SDS011;13029;46.286;7.488;2022-12-07T00:54:13;3.67;;;1.42;;
25015;SDS011;13029;46.286;7.488;2022-12-07T00:56:39;1.90;;;1.40;;
25015;SDS011;13029;46.286;7.488;2022-12-07T00:59:04;2.33;;;1.35;;
25015;SDS011;13029;46.286;7.488;2022-12-07T01:01:32;2.35;;;1.23;;
25015;SDS011;13029;46.286;7.488;2022-12-07T01:03:59;2.65;;;1.27;;
25015;SDS011;13029;46.286;7.488;2022-12-07T01:06:28;3.88;;;1.38;;
25015;SDS011;13029;46.286;7.488;2022-12-07T01:08:53;2.05;;;1.35;;
25015;SDS011;13029;46.286;7.488;2022-12-07T01:11:23;2.35;;;1.30;;
25015;SDS011;13029;46.286;7.488;2022-12-07T01:13:51;2.30;;;1.30;;
25015;SDS011;13029;46.286;7.488;2022-12-07T01:16:18;4.65;;;1.52;;
25015;SDS011;13029;46.286;7.488;2022-12-07T01:18:45;1.88;;;1.40;;
25015;SDS011;13029;46.286;7.488;2022-12-07T01:21:13;3.83;;;1.60;;
25015;SDS011;13029;46.286;7.488;2022-12-07T01:23:40;4.03;;;1.88;;
25015;SDS011;13029;46.286;7.488;2022-12-07T01:26:07;3.17;;;1.70;;
25015;SDS011;13029;46.286;7.488;2022-12-07T01:28:34;3.95;;;1.50;;
25015;SDS011;13029;46.286;7.488;2022-12-07T01:31:04;2.30;;;1.35;;
25015;SDS011;13029;46.286;7.488;2022-12-07T01:33:32;3.22;;;1.58;;
25015;SDS011;13029;46.286;7.488;2022-12-07T01:36:12;4.25;;;1.83;;
25015;SDS011;13029;46.286;7.488;2022-12-07T01:38:43;5.63;;;1.75;;
25015;SDS011;13029;46.286;7.488;2022-12-07T01:41:09;2.25;;;1.65;;
25015;SDS011;13029;46.286;7.488;2022-12-07T01:43:35;3.45;;;1.73;;
25015;SDS011;13029;46.286;7.488;2022-12-07T01:46:01;6.18;;;2.10;;
25015;SDS011;13029;46.286;7.488;2022-12-07T01:48:29;2.92;;;1.58;;
25015;SDS011;13029;46.286;7.488;2022-12-07T01:53:25;2.63;;;1.70;;
25015;SDS011;13029;46.286;7.488;2022-12-07T01:55:52;2.10;;;1.30;;
25015;SDS011;13029;46.286;7.488;2022-12-07T01:58:17;4.32;;;2.10;;
25015;SDS011;13029;46.286;7.488;2022-12-07T02:00:43;2.85;;;1.50;;
25015;SDS011;13029;46.286;7.488;2022-12-07T02:03:24;4.28;;;1.85;;
25015;SDS011;13029;46.286;7.488;2022-12-07T02:05:54;2.47;;;1.48;;
25015;SDS011;13029;46.286;7.488;2022-12-07T02:08:19;3.53;;;1.70;;
25015;SDS011;13029;46.286;7.488;2022-12-07T02:10:45;2.13;;;1.77;;
25015;SDS011;13029;46.286;7.488;2022-12-07T02:13:12;2.05;;;1.75;;
25015;SDS011;13029;46.286;7.488;2022-12-07T02:15:45;5.10;;;2.05;;
25015;SDS011;13029;46.286;7.488;2022-12-07T02:18:22;6.63;;;2.22;;
25015;SDS011;13029;46.286;7.488;2022-12-07T02:23:30;2.35;;;2.03;;
25015;SDS011;13029;46.286;7.488;2022-12-07T02:29:07;2.25;;;1.60;;
25015;SDS011;13029;46.286;7.488;2022-12-07T02:31:36;4.95;;;1.80;;
25015;SDS011;13029;46.286;7.488;2022-12-07T02:34:09;2.15;;;1.58;;
25015;SDS011;13029;46.286;7.488;2022-12-07T02:36:42;2.28;;;1.50;;
25015;SDS011;13029;46.286;7.488;2022-12-07T02:39:14;4.47;;;1.90;;
25015;SDS011;13029;46.286;7.488;2022-12-07T02:41:44;2.75;;;1.90;;
25015;SDS011;13029;46.286;7.488;2022-12-07T02:44:16;4.13;;;2.00;;
25015;SDS011;13029;46.286;7.488;2022-12-07T02:46:46;3.65;;;2.08;;
25015;SDS011;13029;46.286;7.488;2022-12-07T02:49:14;2.33;;;1.63;;
25015;SDS011;13029;46.286;7.488;2022-12-07T02:51:44;3.75;;;1.38;;
25015;SDS011;13029;46.286;7.488;2022-12-07T02:54:14;2.30;;;1.77;;
25015;SDS011;13029;46.286;7.488;2022-12-07T03:10:45;5.90;;;2.20;;
25015;SDS011;13029;46.286;7.488;2022-12-07T03:13:22;3.45;;;1.75;;
25015;SDS011;13029;46.286;7.488;2022-12-07T03:18:20;2.80;;;1.80;;
25015;SDS011;13029;46.286;7.488;2022-12-07T03:20:47;4.47;;;1.77;;
25015;SDS011;13029;46.286;7.488;2022-12-07T03:23:15;2.25;;;2.00;;
25015;SDS011;13029;46.286;7.488;2022-12-07T03:25:46;2.55;;;1.98;;
25015;SDS011;13029;46.286;7.488;2022-12-07T03:28:14;3.75;;;2.08;;
25015;SDS011;13029;46.286;7.488;2022-12-07T03:30:42;5.95;;;2.00;;
25015;SDS011;13029;46.286;7.488;2022-12-07T03:33:21;5.05;;;2.33;;
25015;SDS011;13029;46.286;7.488;2022-12-07T03:35:55;5.05;;;2.58;;
25015;SDS011;13029;46.286;7.488;2022-12-07T03:38:33;3.60;;;2.28;;
25015;SDS011;13029;46.286;7.488;2022-12-07T03:41:05;5.18;;;2.30;;
25015;SDS011;13029;46.286;7.488;2022-12-07T03:48:55;9.27;;;4.85;;
25015;SDS011;13029;46.286;7.488;2022-12-07T03:51:33;9.38;;;5.25;;
25015;SDS011;13029;46.286;7.488;2022-12-07T03:56:41;10.85;;;5.15;;
25015;SDS011;13029;46.286;7.488;2022-12-07T03:59:07;8.32;;;4.05;;
25015;SDS011;13029;46.286;7.488;2022-12-07T04:01:32;10.93;;;4.15;;
25015;SDS011;13029;46.286;7.488;2022-12-07T04:03:58;9.05;;;4.22;;
25015;SDS011;13029;46.286;7.488;2022-12-07T04:06:23;8.15;;;3.97;;
25015;SDS011;13029;46.286;7.488;2022-12-07T04:08:48;6.35;;;3.30;;
25015;SDS011;13029;46.286;7.488;2022-12-07T04:11:14;8.10;;;3.22;;
25015;SDS011;13029;46.286;7.488;2022-12-07T04:13:39;4.45;;;2.75;;
25015;SDS011;13029;46.286;7.488;2022-12-07T04:16:23;6.00;;;2.28;;
25015;SDS011;13029;46.286;7.488;2022-12-07T04:18:48;8.63;;;2.70;;
25015;SDS011;13029;46.286;7.488;2022-12-07T04:21:13;3.45;;;2.10;;
25015;SDS011;13029;46.286;7.488;2022-12-07T04:23:39;4.07;;;2.28;;
25015;SDS011;13029;46.286;7.488;2022-12-07T04:26:04;4.57;;;2.50;;
25015;SDS011;13029;46.286;7.488;2022-12-07T04:28:29;2.70;;;2.10;;
25015;SDS011;13029;46.286;7.488;2022-12-07T04:30:55;5.82;;;2.20;;
25015;SDS011;13029;46.286;7.488;2022-12-07T04:33:20;4.22;;;2.30;;
25015;SDS011;13029;46.286;7.488;2022-12-07T04:35:45;3.55;;;2.30;;
25015;SDS011;13029;46.286;7.488;2022-12-07T04:38:11;3.22;;;2.22;;
25015;SDS011;13029;46.286;7.488;2022-12-07T04:40:36;6.57;;;2.17;;
25015;SDS011;13029;46.286;7.488;2022-12-07T04:43:01;4.57;;;2.70;;
25015;SDS011;13029;46.286;7.488;2022-12-07T04:45:27;2.90;;;2.17;;
25015;SDS011;13029;46.286;7.488;2022-12-07T04:47:52;4.18;;;1.92;;
25015;SDS011;13029;46.286;7.488;2022-12-07T04:50:17;2.05;;;1.50;;
25015;SDS011;13029;46.286;7.488;2022-12-07T04:52:43;4.63;;;1.95;;
25015;SDS011;13029;46.286;7.488;2022-12-07T04:55:08;6.18;;;1.65;;
25015;SDS011;13029;46.286;7.488;2022-12-07T04:57:33;3.13;;;2.17;;
25015;SDS011;13029;46.286;7.488;2022-12-07T04:59:59;2.30;;;1.50;;
25015;SDS011;13029;46.286;7.488;2022-12-07T05:02:24;2.40;;;1.58;;
25015;SDS011;13029;46.286;7.488;2022-12-07T05:04:49;2.90;;;1.73;;
25015;SDS011;13029;46.286;7.488;2022-12-07T05:07:15;2.47;;;1.80;;
25015;SDS011;13029;46.286;7.488;2022-12-07T05:09:40;3.72;;;1.90;;
25015;SDS011;13029;46.286;7.488;2022-12-07T05:12:05;2.80;;;1.80;;
25015;SDS011;13029;46.286;7.488;2022-12-07T05:14:31;3.55;;;2.17;;
25015;SDS011;13029;46.286;7.488;2022-12-07T05:16:56;4.82;;;2.30;;
25015;SDS011;13029;46.286;7.488;2022-12-07T05:19:21;4.95;;;2.45;;
25015;SDS011;13029;46.286;7.488;2022-12-07T05:21:47;3.55;;;2.40;;
25015;SDS011;13029;46.286;7.488;2022-12-07T05:24:12;4.90;;;2.47;;
25015;SDS011;13029;46.286;7.488;2022-12-07T05:26:38;3.25;;;2.30;;
25015;SDS011;13029;46.286;7.488;2022-12-07T05:29:04;3.85;;;2.25;;
25015;SDS011;13029;46.286;7.488;2022-12-07T05:31:29;4.07;;;2.45;;
25015;SDS011;13029;46.286;7.488;2022-12-07T05:33:55;12.02;;;2.88;;
25015;SDS011;13029;46.286;7.488;2022-12-07T05:36:20;3.95;;;2.33;;
25015;SDS011;13029;46.286;7.488;2022-12-07T05:38:46;5.75;;;2.38;;
25015;SDS011;13029;46.286;7.488;2022-12-07T05:41:12;4.68;;;2.75;;
25015;SDS011;13029;46.286;7.488;2022-12-07T05:43:58;7.75;;;3.08;;
25015;SDS011;13029;46.286;7.488;2022-12-07T05:46:23;5.07;;;2.80;;
25015;SDS011;13029;46.286;7.488;2022-12-07T05:48:48;3.95;;;2.78;;
25015;SDS011;13029;46.286;7.488;2022-12-07T05:51:14;4.10;;;2.80;;
25015;SDS011;13029;46.286;7.488;2022-12-07T05:53:39;3.38;;;2.78;;
25015;SDS011;13029;46.286;7.488;2022-12-07T05:56:04;3.65;;;2.50;;
25015;SDS011;13029;46.286;7.488;2022-12-07T05:58:30;6.10;;;2.90;;
25015;SDS011;13029;46.286;7.488;2022-12-07T06:01:13;3.30;;;2.67;;
25015;SDS011;13029;46.286;7.488;2022-12-07T06:03:39;4.72;;;2.60;;
25015;SDS011;13029;46.286;7.488;2022-12-07T06:06:04;3.45;;;2.40;;
25015;SDS011;13029;46.286;7.488;2022-12-07T06:08:30;3.47;;;2.60;;
25015;SDS011;13029;46.286;7.488;2022-12-07T06:10:55;4.82;;;2.90;;
25015;SDS011;13029;46.286;7.488;2022-12-07T06:13:40;19.42;;;7.32;;
25015;SDS011;13029;46.286;7.488;2022-12-07T06:16:06;18.13;;;8.30;;
25015;SDS011;13029;46.286;7.488;2022-12-07T06:18:31;24.80;;;10.63;;
25015;SDS011;13029;46.286;7.488;2022-12-07T06:20:56;29.48;;;10.80;;
25015;SDS011;13029;46.286;7.488;2022-12-07T06:23:22;22.45;;;9.10;;
25015;SDS011;13029;46.286;7.488;2022-12-07T06:25:47;15.10;;;6.75;;
25015;SDS011;13029;46.286;7.488;2022-12-07T06:28:12;8.93;;;4.70;;
25015;SDS011;13029;46.286;7.488;2022-12-07T06:30:38;6.35;;;3.88;;
25015;SDS011;13029;46.286;7.488;2022-12-07T06:33:03;5.93;;;3.45;;
25015;SDS011;13029;46.286;7.488;2022-12-07T06:35:28;6.68;;;2.88;;
25015;SDS011;13029;46.286;7.488;2022-12-07T06:37:53;4.32;;;2.28;;
25015;SDS011;13029;46.286;7.488;2022-12-07T06:40:19;4.97;;;2.63;;
25015;SDS011;13029;46.286;7.488;2022-12-07T06:42:44;3.25;;;2.30;;
25015;SDS011;13029;46.286;7.488;2022-12-07T06:45:09;4.75;;;2.28;;
25015;SDS011;13029;46.286;7.488;2022-12-07T06:47:35;4.88;;;2.25;;
25015;SDS011;13029;46.286;7.488;2022-12-07T06:50:00;9.60;;;3.50;;
25015;SDS011;13029;46.286;7.488;2022-12-07T06:52:26;10.30;;;4.00;;
25015;SDS011;13029;46.286;7.488;2022-12-07T06:54:51;9.30;;;4.90;;
25015;SDS011;13029;46.286;7.488;2022-12-07T06:57:16;10.10;;;4.70;;
25015;SDS011;13029;46.286;7.488;2022-12-07T06:59:42;7.85;;;4.75;;
25015;SDS011;13029;46.286;7.488;2022-12-07T07:02:08;7.88;;;4.72;;
25015;SDS011;13029;46.286;7.488;2022-12-07T07:04:33;4.63;;;3.72;;
25015;SDS011;13029;46.286;7.488;2022-12-07T07:06:59;6.75;;;4.00;;
25015;SDS011;13029;46.286;7.488;2022-12-07T07:09:24;12.70;;;5.40;;
25015;SDS011;13029;46.286;7.488;2022-12-07T07:11:49;9.00;;;5.95;;
25015;SDS011;13029;46.286;7.488;2022-12-07T07:14:15;17.48;;;5.65;;
25015;SDS011;13029;46.286;7.488;2022-12-07T07:16:43;11.48;;;7.60;;
25015;SDS011;13029;46.286;7.488;2022-12-07T07:19:09;14.43;;;7.32;;
25015;SDS011;13029;46.286;7.488;2022-12-07T07:21:34;12.35;;;7.43;;
25015;SDS011;13029;46.286;7.488;2022-12-07T07:24:00;10.77;;;6.30;;
25015;SDS011;13029;46.286;7.488;2022-12-07T07:26:25;13.95;;;7.80;;
25015;SDS011;13029;46.286;7.488;2022-12-07T07:28:50;15.23;;;7.63;;
25015;SDS011;13029;46.286;7.488;2022-12-07T07:31:16;14.50;;;8.55;;
25015;SDS011;13029;46.286;7.488;2022-12-07T07:33:41;11.57;;;7.25;;
25015;SDS011;13029;46.286;7.488;2022-12-07T07:36:06;15.77;;;7.95;;
25015;SDS011;13029;46.286;7.488;2022-12-07T07:38:32;13.32;;;7.32;;
25015;SDS011;13029;46.286;7.488;2022-12-07T07:40:58;16.20;;;8.15;;
25015;SDS011;13029;46.286;7.488;2022-12-07T07:43:23;14.85;;;8.32;;
25015;SDS011;13029;46.286;7.488;2022-12-07T07:45:48;16.30;;;8.57;;
25015;SDS011;13029;46.286;7.488;2022-12-07T07:48:14;14.80;;;7.95;;
25015;SDS011;13029;46.286;7.488;2022-12-07T07:50:39;14.88;;;7.78;;
25015;SDS011;13029;46.286;7.488;2022-12-07T07:53:04;20.05;;;9.23;;
25015;SDS011;13029;46.286;7.488;2022-12-07T07:55:29;14.50;;;8.93;;
25015;SDS011;13029;46.286;7.488;2022-12-07T07:57:55;13.05;;;7.10;;
25015;SDS011;13029;46.286;7.488;2022-12-07T08:00:20;11.88;;;7.50;;
25015;SDS011;13029;46.286;7.488;2022-12-07T08:02:47;12.55;;;7.75;;
25015;SDS011;13029;46.286;7.488;2022-12-07T08:05:12;10.38;;;6.95;;
25015;SDS011;13029;46.286;7.488;2022-12-07T08:07:38;11.13;;;7.30;;
25015;SDS011;13029;46.286;7.488;2022-12-07T08:10:04;12.95;;;7.88;;
25015;SDS011;13029;46.286;7.488;2022-12-07T08:12:30;14.50;;;7.35;;
25015;SDS011;13029;46.286;7.488;2022-12-07T08:14:56;9.38;;;6.22;;
25015;SDS011;13029;46.286;7.488;2022-12-07T08:17:22;15.68;;;6.47;;
25015;SDS011;13029;46.286;7.488;2022-12-07T08:19:47;11.65;;;5.90;;
25015;SDS011;13029;46.286;7.488;2022-12-07T08:22:12;8.48;;;5.22;;
25015;SDS011;13029;46.286;7.488;2022-12-07T08:24:38;8.05;;;4.90;;
25015;SDS011;13029;46.286;7.488;2022-12-07T08:27:03;7.38;;;4.82;;
25015;SDS011;13029;46.286;7.488;2022-12-07T08:29:28;7.90;;;3.70;;
25015;SDS011;13029;46.286;7.488;2022-12-07T08:31:54;7.60;;;4.25;;
25015;SDS011;13029;46.286;7.488;2022-12-07T08:34:19;7.90;;;4.10;;
25015;SDS011;13029;46.286;7.488;2022-12-07T08:36:45;10.93;;;3.97;;
25015;SDS011;13029;46.286;7.488;2022-12-07T08:39:10;7.95;;;5.10;;
25015;SDS011;13029;46.286;7.488;2022-12-07T08:41:35;5.70;;;4.22;;
25015;SDS011;13029;46.286;7.488;2022-12-07T08:44:01;6.32;;;4.03;;
25015;SDS011;13029;46.286;7.488;2022-12-07T08:46:31;6.03;;;4.35;;
25015;SDS011;13029;46.286;7.488;2022-12-07T08:49:10;7.72;;;4.60;;
25015;SDS011;13029;46.286;7.488;2022-12-07T08:51:37;5.30;;;3.65;;
25015;SDS011;13029;46.286;7.488;2022-12-07T08:54:04;5.97;;;3.55;;
25015;SDS011;13029;46.286;7.488;2022-12-07T08:56:31;7.30;;;3.33;;
25015;SDS011;13029;46.286;7.488;2022-12-07T08:58:57;10.93;;;3.83;;
25015;SDS011;13029;46.286;7.488;2022-12-07T09:01:22;5.25;;;3.08;;
25015;SDS011;13029;46.286;7.488;2022-12-07T09:03:48;7.57;;;3.60;;
25015;SDS011;13029;46.286;7.488;2022-12-07T09:06:13;5.72;;;3.28;;
25015;SDS011;13029;46.286;7.488;2022-12-07T09:08:40;3.58;;;2.78;;
25015;SDS011;13029;46.286;7.488;2022-12-07T09:11:08;3.35;;;2.65;;
25015;SDS011;13029;46.286;7.488;2022-12-07T09:13:33;4.25;;;2.95;;
25015;SDS011;13029;46.286;7.488;2022-12-07T09:15:58;3.33;;;2.75;;
25015;SDS011;13029;46.286;7.488;2022-12-07T09:18:24;4.40;;;2.67;;
25015;SDS011;13029;46.286;7.488;2022-12-07T09:20:49;5.13;;;3.05;;
25015;SDS011;13029;46.286;7.488;2022-12-07T09:23:15;5.07;;;2.70;;
25015;SDS011;13029;46.286;7.488;2022-12-07T09:25:40;7.18;;;3.30;;
25015;SDS011;13029;46.286;7.488;2022-12-07T09:28:06;6.32;;;3.00;;
25015;SDS011;13029;46.286;7.488;2022-12-07T09:30:31;5.07;;;2.70;;
25015;SDS011;13029;46.286;7.488;2022-12-07T09:32:56;5.93;;;2.67;;
25015;SDS011;13029;46.286;7.488;2022-12-07T09:35:22;5.93;;;2.40;;
25015;SDS011;13029;46.286;7.488;2022-12-07T09:37:48;3.33;;;2.10;;
25015;SDS011;13029;46.286;7.488;2022-12-07T09:40:13;3.85;;;2.03;;
25015;SDS011;13029;46.286;7.488;2022-12-07T09:42:41;3.65;;;2.10;;
25015;SDS011;13029;46.286;7.488;2022-12-07T09:45:17;3.22;;;2.28;;
25015;SDS011;13029;46.286;7.488;2022-12-07T09:47:45;3.40;;;2.45;;
25015;SDS011;13029;46.286;7.488;2022-12-07T09:50:15;3.72;;;2.30;;
25015;SDS011;13029;46.286;7.488;2022-12-07T09:52:42;7.20;;;1.75;;
25015;SDS011;13029;46.286;7.488;2022-12-07T09:55:11;3.00;;;1.80;;
25015;SDS011;13029;46.286;7.488;2022-12-07T09:57:44;2.05;;;1.70;;
25015;SDS011;13029;46.286;7.488;2022-12-07T10:00:12;5.32;;;1.98;;
25015;SDS011;13029;46.286;7.488;2022-12-07T10:02:40;2.90;;;1.90;;
25015;SDS011;13029;46.286;7.488;2022-12-07T10:05:12;3.58;;;1.65;;
25015;SDS011;13029;46.286;7.488;2022-12-07T10:07:40;2.38;;;1.80;;
25015;SDS011;13029;46.286;7.488;2022-12-07T10:10:19;4.32;;;1.98;;
25015;SDS011;13029;46.286;7.488;2022-12-07T10:13:09;4.55;;;1.90;;
25015;SDS011;13029;46.286;7.488;2022-12-07T10:23:33;2.50;;;1.40;;
25015;SDS011;13029;46.286;7.488;2022-12-07T10:25:59;3.72;;;1.50;;
25015;SDS011;13029;46.286;7.488;2022-12-07T10:28:27;5.60;;;2.28;;
25015;SDS011;13029;46.286;7.488;2022-12-07T10:30:59;3.55;;;2.45;;
25015;SDS011;13029;46.286;7.488;2022-12-07T10:33:32;5.32;;;2.72;;
25015;SDS011;13029;46.286;7.488;2022-12-07T10:36:00;4.55;;;2.40;;
25015;SDS011;13029;46.286;7.488;2022-12-07T10:38:27;4.07;;;2.90;;
25015;SDS011;13029;46.286;7.488;2022-12-07T10:41:25;7.43;;;3.50;;
25015;SDS011;13029;46.286;7.488;2022-12-07T10:43:48;5.28;;;4.03;;
25015;SDS011;13029;46.286;7.488;2022-12-07T10:49:09;5.15;;;3.70;;
25015;SDS011;13029;46.286;7.488;2022-12-07T10:54:40;5.43;;;3.30;;
25015;SDS011;13029;46.286;7.488;2022-12-07T10:57:32;5.60;;;3.30;;
25015;SDS011;13029;46.286;7.488;2022-12-07T11:00:22;6.22;;;3.15;;
25015;SDS011;13029;46.286;7.488;2022-12-07T11:03:14;5.40;;;3.17;;
25015;SDS011;13029;46.286;7.488;2022-12-07T11:16:38;9.55;;;3.72;;
25015;SDS011;13029;46.286;7.488;2022-12-07T11:25:33;4.55;;;3.05;;
25015;SDS011;13029;46.286;7.488;2022-12-07T11:30:38;6.97;;;2.92;;
25015;SDS011;13029;46.286;7.488;2022-12-07T11:35:52;4.97;;;2.72;;
25015;SDS011;13029;46.286;7.488;2022-12-07T11:38:31;5.10;;;3.00;;
25015;SDS011;13029;46.286;7.488;2022-12-07T11:41:03;4.35;;;2.50;;
25015;SDS011;13029;46.286;7.488;2022-12-07T11:43:44;8.80;;;2.92;;
25015;SDS011;13029;46.286;7.488;2022-12-07T11:46:19;6.45;;;4.15;;
25015;SDS011;13029;46.286;7.488;2022-12-07T11:48:51;6.47;;;3.63;;
25015;SDS011;13029;46.286;7.488;2022-12-07T11:51:20;4.53;;;3.03;;
25015;SDS011;13029;46.286;7.488;2022-12-07T11:53:52;4.03;;;2.20;;
25015;SDS011;13029;46.286;7.488;2022-12-07T11:56:26;4.65;;;2.58;;
25015;SDS011;13029;46.286;7.488;2022-12-07T11:59:00;5.53;;;3.10;;
25015;SDS011;13029;46.286;7.488;2022-12-07T12:06:35;7.78;;;3.70;;
25015;SDS011;13029;46.286;7.488;2022-12-07T12:23:00;5.05;;;3.60;;
25015;SDS011;13029;46.286;7.488;2022-12-07T12:28:10;6.78;;;4.03;;
25015;SDS011;13029;46.286;7.488;2022-12-07T12:32:03;7.20;;;3.72;;
25015;SDS011;13029;46.286;7.488;2022-12-07T12:34:03;4.68;;;3.30;;
25015;SDS011;13029;46.286;7.488;2022-12-07T12:39:11;6.95;;;4.25;;
25015;SDS011;13029;46.286;7.488;2022-12-07T12:51:50;4.38;;;2.83;;
25015;SDS011;13029;46.286;7.488;2022-12-07T12:54:20;4.23;;;2.80;;
25015;SDS011;13029;46.286;7.488;2022-12-07T12:59:32;5.22;;;3.42;;
25015;SDS011;13029;46.286;7.488;2022-12-07T13:10:33;8.02;;;5.68;;
25015;SDS011;13029;46.286;7.488;2022-12-07T13:15:45;12.35;;;7.75;;
25015;SDS011;13029;46.286;7.488;2022-12-07T13:29:06;11.73;;;8.52;;
25015;SDS011;13029;46.286;7.488;2022-12-07T13:34:31;13.88;;;9.25;;
25015;SDS011;13029;46.286;7.488;2022-12-07T13:39:44;14.68;;;10.35;;
25015;SDS011;13029;46.286;7.488;2022-12-07T13:42:15;14.73;;;9.80;;
25015;SDS011;13029;46.286;7.488;2022-12-07T13:44:47;13.55;;;11.10;;
25015;SDS011;13029;46.286;7.488;2022-12-07T13:47:14;13.77;;;10.13;;
25015;SDS011;13029;46.286;7.488;2022-12-07T13:49:46;15.45;;;10.27;;
25015;SDS011;13029;46.286;7.488;2022-12-07T13:54:47;17.35;;;11.48;;
25015;SDS011;13029;46.286;7.488;2022-12-07T13:57:16;15.80;;;11.43;;
25015;SDS011;13029;46.286;7.488;2022-12-07T13:59:42;14.88;;;11.27;;
25015;SDS011;13029;46.286;7.488;2022-12-07T14:02:17;20.20;;;10.40;;
25015;SDS011;13029;46.286;7.488;2022-12-07T14:05:05;15.55;;;10.55;;
25015;SDS011;13029;46.286;7.488;2022-12-07T14:10:35;15.35;;;10.73;;
25015;SDS011;13029;46.286;7.488;2022-12-07T14:18:24;16.80;;;10.67;;
25015;SDS011;13029;46.286;7.488;2022-12-07T14:21:18;15.43;;;11.13;;
25015;SDS011;13029;46.286;7.488;2022-12-07T14:24:01;18.92;;;11.48;;
25015;SDS011;13029;46.286;7.488;2022-12-07T14:26:27;17.27;;;11.13;;
25015;SDS011;13029;46.286;7.488;2022-12-07T14:28:52;20.45;;;11.80;;
25015;SDS011;13029;46.286;7.488;2022-12-07T14:31:18;19.85;;;11.10;;
25015;SDS011;13029;46.286;7.488;2022-12-07T14:33:46;17.15;;;10.77;;
25015;SDS011;13029;46.286;7.488;2022-12-07T14:36:12;18.52;;;11.90;;
25015;SDS011;13029;46.286;7.488;2022-12-07T14:38:38;18.17;;;11.40;;
25015;SDS011;13029;46.286;7.488;2022-12-07T14:41:03;16.15;;;10.90;;
25015;SDS011;13029;46.286;7.488;2022-12-07T14:43:48;18.92;;;10.93;;
25015;SDS011;13029;46.286;7.488;2022-12-07T14:46:13;17.48;;;11.80;;
25015;SDS011;13029;46.286;7.488;2022-12-07T14:48:39;19.13;;;11.02;;
25015;SDS011;13029;46.286;7.488;2022-12-07T14:51:04;18.98;;;11.48;;
25015;SDS011;13029;46.286;7.488;2022-12-07T14:53:31;24.65;;;11.25;;
25015;SDS011;13029;46.286;7.488;2022-12-07T14:55:59;17.25;;;11.13;;
25015;SDS011;13029;46.286;7.488;2022-12-07T14:58:24;17.40;;;10.77;;
25015;SDS011;13029;46.286;7.488;2022-12-07T15:00:50;19.63;;;11.63;;
25015;SDS011;13029;46.286;7.488;2022-12-07T15:03:15;17.45;;;11.73;;
25015;SDS011;13029;46.286;7.488;2022-12-07T15:05:40;18.85;;;11.38;;
25015;SDS011;13029;46.286;7.488;2022-12-07T15:08:06;17.27;;;11.45;;
25015;SDS011;13029;46.286;7.488;2022-12-07T15:10:32;21.35;;;10.07;;
25015;SDS011;13029;46.286;7.488;2022-12-07T15:12:59;17.13;;;11.23;;
25015;SDS011;13029;46.286;7.488;2022-12-07T15:15:43;23.02;;;11.60;;
25015;SDS011;13029;46.286;7.488;2022-12-07T15:18:08;17.17;;;11.52;;
25015;SDS011;13029;46.286;7.488;2022-12-07T15:20:34;15.60;;;10.57;;
25015;SDS011;13029;46.286;7.488;2022-12-07T15:22:59;20.23;;;10.55;;
25015;SDS011;13029;46.286;7.488;2022-12-07T15:25:24;16.77;;;10.70;;
25015;SDS011;13029;46.286;7.488;2022-12-07T15:27:50;18.98;;;11.13;;
25015;SDS011;13029;46.286;7.488;2022-12-07T15:30:15;20.30;;;10.57;;
25015;SDS011;13029;46.286;7.488;2022-12-07T15:32:40;18.30;;;11.25;;
25015;SDS011;13029;46.286;7.488;2022-12-07T15:35:06;16.80;;;10.57;;
25015;SDS011;13029;46.286;7.488;2022-12-07T15:37:31;19.88;;;11.52;;
25015;SDS011;13029;46.286;7.488;2022-12-07T15:39:57;19.40;;;11.60;;
25015;SDS011;13029;46.286;7.488;2022-12-07T15:42:22;18.20;;;10.98;;
25015;SDS011;13029;46.286;7.488;2022-12-07T15:44:47;20.52;;;11.75;;
25015;SDS011;13029;46.286;7.488;2022-12-07T15:47:35;25.27;;;11.18;;
25015;SDS011;13029;46.286;7.488;2022-12-07T15:50:09;17.15;;;10.40;;
25015;SDS011;13029;46.286;7.488;2022-12-07T15:52:36;17.20;;;10.85;;
25015;SDS011;13029;46.286;7.488;2022-12-07T15:55:02;16.70;;;10.13;;
25015;SDS011;13029;46.286;7.488;2022-12-07T15:57:28;16.65;;;10.57;;
25015;SDS011;13029;46.286;7.488;2022-12-07T15:59:56;18.60;;;9.90;;
25015;SDS011;13029;46.286;7.488;2022-12-07T16:02:22;18.42;;;9.80;;
25015;SDS011;13029;46.286;7.488;2022-12-07T16:04:48;14.73;;;9.65;;
25015;SDS011;13029;46.286;7.488;2022-12-07T16:07:14;17.33;;;10.23;;
25015;SDS011;13029;46.286;7.488;2022-12-07T16:09:41;15.02;;;8.65;;
25015;SDS011;13029;46.286;7.488;2022-12-07T16:12:07;18.17;;;8.98;;
25015;SDS011;13029;46.286;7.488;2022-12-07T16:14:32;16.13;;;8.10;;
25015;SDS011;13029;46.286;7.488;2022-12-07T16:16:58;14.32;;;8.75;;
25015;SDS011;13029;46.286;7.488;2022-12-07T16:19:24;15.77;;;9.02;;
25015;SDS011;13029;46.286;7.488;2022-12-07T16:21:49;23.33;;;8.88;;
25015;SDS011;13029;46.286;7.488;2022-12-07T16:24:14;33.17;;;10.60;;
25015;SDS011;13029;46.286;7.488;2022-12-07T16:26:41;33.35;;;11.63;;
25015;SDS011;13029;46.286;7.488;2022-12-07T16:29:07;30.92;;;11.57;;
25015;SDS011;13029;46.286;7.488;2022-12-07T16:31:32;22.55;;;11.90;;
25015;SDS011;13029;46.286;7.488;2022-12-07T16:33:58;21.90;;;10.68;;
25015;SDS011;13029;46.286;7.488;2022-12-07T16:36:24;17.55;;;9.98;;
25015;SDS011;13029;46.286;7.488;2022-12-07T16:38:51;19.70;;;11.02;;
25015;SDS011;13029;46.286;7.488;2022-12-07T16:41:16;22.70;;;10.18;;
25015;SDS011;13029;46.286;7.488;2022-12-07T16:43:41;18.60;;;10.07;;
25015;SDS011;13029;46.286;7.488;2022-12-07T16:46:07;19.70;;;10.57;;
25015;SDS011;13029;46.286;7.488;2022-12-07T16:48:36;16.05;;;9.52;;
25015;SDS011;13029;46.286;7.488;2022-12-07T16:51:03;17.13;;;10.73;;
25015;SDS011;13029;46.286;7.488;2022-12-07T16:53:30;16.77;;;9.63;;
25015;SDS011;13029;46.286;7.488;2022-12-07T16:55:55;24.35;;;10.70;;
25015;SDS011;13029;46.286;7.488;2022-12-07T16:58:20;20.83;;;12.15;;
25015;SDS011;13029;46.286;7.488;2022-12-07T17:00:46;25.83;;;13.52;;
25015;SDS011;13029;46.286;7.488;2022-12-07T17:03:11;22.98;;;13.15;;
25015;SDS011;13029;46.286;7.488;2022-12-07T17:05:38;22.42;;;12.32;;
25015;SDS011;13029;46.286;7.488;2022-12-07T17:08:04;24.65;;;12.50;;
25015;SDS011;13029;46.286;7.488;2022-12-07T17:10:29;24.73;;;13.57;;